Vaciamadrid, Spain
Current Conditions -  °F | °C
As of 7:00 PM on Tuesday 21 Oct 2014 (Local Time) from LEMD Reporting Station
Clear Clear  
Wind Chill: 82°   Ceiling: Unl
Heat Index: 82°   Visibility: 6mi
Dew Point: 50°   Wind: 3mph
Humidity: 32%   Direction: 190°S
Pressure: 30.3"   Gusts: NA
Location:  40.33°N, 3.51°W
Report Text: LEMD 211700Z 19003KT 130V240 CAVOK 28/10 Q1026 NOSIG
Loading
Personal Weather Stations






























Interactive Weather Map
Tropical Storm Tracking
New forecast layout! Learn more

10-Day Weather Forecast

Advertisements
Track Severe Weather on mobile